Aviation Digital Data Service (ADDS)

Output produced by TAFs form (0737 UTC 16 January 2018)
found at http://www.aviationweather.gov/adds/tafs/
 
KSTC 160520Z 1606/1706 34010KT P6SM BKN015 BKN040 
     FM161600 31006KT P6SM SCT015 
     FM170000 23006KT P6SM SCT100